sensor_id;sensor_type;location;lat;lon;timestamp;pressure;altitude;pressure_sealevel;temperature;humidity
18231;BME280;9240;49.966;21.994;2024-03-02T00:00:07;98538.78;;;6.96;86.35
18231;BME280;9240;49.966;21.994;2024-03-02T00:02:33;98539.59;;;6.96;86.04
18231;BME280;9240;49.966;21.994;2024-03-02T00:05:00;98542.19;;;6.96;85.63
18231;BME280;9240;49.966;21.994;2024-03-02T00:07:25;98543.03;;;6.97;86.21
18231;BME280;9240;49.966;21.994;2024-03-02T00:09:52;98538.78;;;6.96;86.07
18231;BME280;9240;49.966;21.994;2024-03-02T00:12:18;98536.06;;;6.97;86.35
18231;BME280;9240;49.966;21.994;2024-03-02T00:14:44;98537.84;;;6.97;85.97
18231;BME280;9240;49.966;21.994;2024-03-02T00:17:17;98534.41;;;6.96;85.92
18231;BME280;9240;49.966;21.994;2024-03-02T00:19:46;98540.44;;;6.97;86.19
18231;BME280;9240;49.966;21.994;2024-03-02T00:22:13;98542.19;;;6.96;85.88
18231;BME280;9240;49.966;21.994;2024-03-02T00:24:39;98543.03;;;6.97;85.75
18231;BME280;9240;49.966;21.994;2024-03-02T00:27:05;98541.38;;;6.96;85.89
18231;BME280;9240;49.966;21.994;2024-03-02T00:29:32;98548.19;;;6.97;85.80
18231;BME280;9240;49.966;21.994;2024-03-02T00:31:58;98545.41;;;7.00;85.55
18231;BME280;9240;49.966;21.994;2024-03-02T00:34:23;98545.41;;;7.00;86.28
18231;BME280;9240;49.966;21.994;2024-03-02T00:36:49;98544.44;;;7.01;85.67
18231;BME280;9240;49.966;21.994;2024-03-02T00:39:16;98534.81;;;7.03;85.97
18231;BME280;9240;49.966;21.994;2024-03-02T00:41:41;98527.88;;;7.04;86.01
18231;BME280;9240;49.966;21.994;2024-03-02T00:44:07;98522.59;;;7.05;85.87
18231;BME280;9240;49.966;21.994;2024-03-02T00:46:35;98526.03;;;7.06;85.90
18231;BME280;9240;49.966;21.994;2024-03-02T00:49:02;98518.13;;;7.07;85.90
18231;BME280;9240;49.966;21.994;2024-03-02T00:51:29;98508.50;;;7.09;85.82
18231;BME280;9240;49.966;21.994;2024-03-02T00:53:57;98517.94;;;7.10;86.00
18231;BME280;9240;49.966;21.994;2024-03-02T00:56:25;98516.16;;;7.11;85.61
18231;BME280;9240;49.966;21.994;2024-03-02T00:58:51;98517.00;;;7.11;86.00
18231;BME280;9240;49.966;21.994;2024-03-02T01:01:17;98517.00;;;7.11;85.40
18231;BME280;9240;49.966;21.994;2024-03-02T01:03:42;98522.25;;;7.10;85.92
18231;BME280;9240;49.966;21.994;2024-03-02T01:06:08;98518.00;;;7.09;85.84
18231;BME280;9240;49.966;21.994;2024-03-02T01:08:34;98514.63;;;7.08;86.16
18231;BME280;9240;49.966;21.994;2024-03-02T01:11:00;98512.03;;;7.08;86.12
18231;BME280;9240;49.966;21.994;2024-03-02T01:13:27;98514.63;;;7.08;85.81
18231;BME280;9240;49.966;21.994;2024-03-02T01:15:52;98503.31;;;7.09;86.08
18231;BME280;9240;49.966;21.994;2024-03-02T01:18:18;98498.97;;;7.10;85.96
18231;BME280;9240;49.966;21.994;2024-03-02T01:20:43;98497.31;;;7.09;85.63
18231;BME280;9240;49.966;21.994;2024-03-02T01:23:09;98499.81;;;7.10;86.19
18231;BME280;9240;49.966;21.994;2024-03-02T01:25:34;98495.56;;;7.09;86.26
18231;BME280;9240;49.966;21.994;2024-03-02T01:27:59;98496.38;;;7.10;85.88
18231;BME280;9240;49.966;21.994;2024-03-02T01:30:26;98498.16;;;7.09;86.19
18231;BME280;9240;49.966;21.994;2024-03-02T01:32:52;98492.13;;;7.09;85.67
18231;BME280;9240;49.966;21.994;2024-03-02T01:35:17;98488.84;;;7.07;86.00
18231;BME280;9240;49.966;21.994;2024-03-02T01:37:43;98493.91;;;7.08;86.03
18231;BME280;9240;49.966;21.994;2024-03-02T01:40:09;98490.59;;;7.06;85.98
18231;BME280;9240;49.966;21.994;2024-03-02T01:42:36;98488.13;;;7.05;86.05
18231;BME280;9240;49.966;21.994;2024-03-02T01:45:02;98484.81;;;7.03;86.07
18231;BME280;9240;49.966;21.994;2024-03-02T01:47:29;98479.72;;;7.01;86.02
18231;BME280;9240;49.966;21.994;2024-03-02T01:49:54;98473.00;;;6.98;85.89
18231;BME280;9240;49.966;21.994;2024-03-02T01:52:20;98477.59;;;6.95;86.33
18231;BME280;9240;49.966;21.994;2024-03-02T01:54:45;98475.94;;;6.94;86.39
18231;BME280;9240;49.966;21.994;2024-03-02T01:57:11;98484.75;;;6.91;86.13
18231;BME280;9240;49.966;21.994;2024-03-02T01:59:36;98477.78;;;6.92;86.47
18231;BME280;9240;49.966;21.994;2024-03-02T02:02:01;98488.16;;;6.92;86.49
18231;BME280;9240;49.966;21.994;2024-03-02T02:04:28;98483.09;;;6.90;86.65
18231;BME280;9240;49.966;21.994;2024-03-02T02:06:54;98482.16;;;6.91;86.36
18231;BME280;9240;49.966;21.994;2024-03-02T02:09:19;98476.97;;;6.91;86.56
18231;BME280;9240;49.966;21.994;2024-03-02T02:11:45;98478.72;;;6.91;86.50
18231;BME280;9240;49.966;21.994;2024-03-02T02:14:10;98461.44;;;6.91;86.61
18231;BME280;9240;49.966;21.994;2024-03-02T02:16:36;98469.22;;;6.91;86.48
18231;BME280;9240;49.966;21.994;2024-03-02T02:19:01;98465.78;;;6.91;86.50
18231;BME280;9240;49.966;21.994;2024-03-02T02:21:28;98452.97;;;6.89;86.43
18231;BME280;9240;49.966;21.994;2024-03-02T02:23:54;98446.00;;;6.90;86.62
18231;BME280;9240;49.966;21.994;2024-03-02T02:26:19;98442.69;;;6.88;86.69
18231;BME280;9240;49.966;21.994;2024-03-02T02:28:45;98439.50;;;6.84;86.68
18231;BME280;9240;49.966;21.994;2024-03-02T02:31:10;98448.41;;;6.80;86.52
18231;BME280;9240;49.966;21.994;2024-03-02T02:33:39;98448.75;;;6.75;86.73
18231;BME280;9240;49.966;21.994;2024-03-02T02:36:04;98442.13;;;6.71;86.78
18231;BME280;9240;49.966;21.994;2024-03-02T02:38:33;98449.28;;;6.67;87.11
18231;BME280;9240;49.966;21.994;2024-03-02T02:41:01;98443.50;;;6.64;86.88
18231;BME280;9240;49.966;21.994;2024-03-02T02:43:26;98441.22;;;6.59;87.08
18231;BME280;9240;49.966;21.994;2024-03-02T02:45:51;98447.56;;;6.55;87.02
18231;BME280;9240;49.966;21.994;2024-03-02T02:48:17;98442.66;;;6.50;87.21
18231;BME280;9240;49.966;21.994;2024-03-02T02:50:42;98439.47;;;6.47;87.33
18231;BME280;9240;49.966;21.994;2024-03-02T02:53:08;98435.44;;;6.43;87.14
18231;BME280;9240;49.966;21.994;2024-03-02T02:55:35;98440.00;;;6.39;87.45
18231;BME280;9240;49.966;21.994;2024-03-02T02:58:00;98447.75;;;6.39;87.63
18231;BME280;9240;49.966;21.994;2024-03-02T03:00:26;98446.09;;;6.38;87.89
18231;BME280;9240;49.966;21.994;2024-03-02T03:02:51;98452.94;;;6.39;87.91
18231;BME280;9240;49.966;21.994;2024-03-02T03:05:17;98445.06;;;6.41;87.77
18231;BME280;9240;49.966;21.994;2024-03-02T03:07:42;98444.13;;;6.42;87.76
18231;BME280;9240;49.966;21.994;2024-03-02T03:10:08;98443.09;;;6.44;87.66
18231;BME280;9240;49.966;21.994;2024-03-02T03:12:35;98450.75;;;6.46;87.81
18231;BME280;9240;49.966;21.994;2024-03-02T03:15:01;98444.66;;;6.47;88.01
18231;BME280;9240;49.966;21.994;2024-03-02T03:17:27;98444.66;;;6.47;87.85
18231;BME280;9240;49.966;21.994;2024-03-02T03:19:52;98435.16;;;6.47;87.91
18231;BME280;9240;49.966;21.994;2024-03-02T03:22:18;98434.22;;;6.48;87.74
18231;BME280;9240;49.966;21.994;2024-03-02T03:24:43;98432.56;;;6.47;87.91
18231;BME280;9240;49.966;21.994;2024-03-02T03:27:09;98442.06;;;6.47;87.68
18231;BME280;9240;49.966;21.994;2024-03-02T03:29:37;98442.06;;;6.47;88.23
18231;BME280;9240;49.966;21.994;2024-03-02T03:32:03;98448.06;;;6.47;88.05
18231;BME280;9240;49.966;21.994;2024-03-02T03:34:29;98441.13;;;6.48;88.07
18231;BME280;9240;49.966;21.994;2024-03-02T03:36:54;98447.16;;;6.48;87.87
18231;BME280;9240;49.966;21.994;2024-03-02T03:39:20;98438.44;;;6.49;88.17
18231;BME280;9240;49.966;21.994;2024-03-02T03:41:45;98436.81;;;6.48;88.00
18231;BME280;9240;49.966;21.994;2024-03-02T03:44:11;98443.59;;;6.49;87.99
18231;BME280;9240;49.966;21.994;2024-03-02T03:46:37;98439.28;;;6.50;88.09
18231;BME280;9240;49.966;21.994;2024-03-02T03:49:03;98435.84;;;6.49;88.16
18231;BME280;9240;49.966;21.994;2024-03-02T03:51:28;98438.44;;;6.49;88.04
18231;BME280;9240;49.966;21.994;2024-03-02T03:53:54;98426.44;;;6.48;88.30
18231;BME280;9240;49.966;21.994;2024-03-02T03:56:19;98423.03;;;6.48;88.12
18231;BME280;9240;49.966;21.994;2024-03-02T03:58:44;98415.38;;;6.46;88.52
18231;BME280;9240;49.966;21.994;2024-03-02T04:01:10;98416.31;;;6.45;88.16
18231;BME280;9240;49.966;21.994;2024-03-02T04:03:37;98423.16;;;6.46;88.46
18231;BME280;9240;49.966;21.994;2024-03-02T04:06:03;98427.47;;;6.46;88.18
18231;BME280;9240;49.966;21.994;2024-03-02T04:08:29;98436.06;;;6.46;88.18
18231;BME280;9240;49.966;21.994;2024-03-02T04:10:54;98440.31;;;6.47;88.46
18231;BME280;9240;49.966;21.994;2024-03-02T04:13:19;98443.72;;;6.48;88.29
18231;BME280;9240;49.966;21.994;2024-03-02T04:15:45;98440.31;;;6.47;88.26
18231;BME280;9240;49.966;21.994;2024-03-02T04:18:10;98443.72;;;6.48;88.34
18231;BME280;9240;49.966;21.994;2024-03-02T04:20:37;98437.72;;;6.47;88.45
18231;BME280;9240;49.966;21.994;2024-03-02T04:23:03;98432.56;;;6.47;88.43
18231;BME280;9240;49.966;21.994;2024-03-02T04:25:29;98441.25;;;6.46;88.67
18231;BME280;9240;49.966;21.994;2024-03-02T04:27:54;98442.25;;;6.44;88.64
18231;BME280;9240;49.966;21.994;2024-03-02T04:30:19;98450.03;;;6.44;88.62
18231;BME280;9240;49.966;21.994;2024-03-02T04:32:45;98444.97;;;6.42;88.72
18231;BME280;9240;49.966;21.994;2024-03-02T04:35:10;98440.72;;;6.41;88.54
18231;BME280;9240;49.966;21.994;2024-03-02T04:37:37;98444.13;;;6.42;88.92
18231;BME280;9240;49.966;21.994;2024-03-02T04:40:04;98444.13;;;6.42;88.61
18231;BME280;9240;49.966;21.994;2024-03-02T04:42:29;98440.72;;;6.41;88.68
18231;BME280;9240;49.966;21.994;2024-03-02T04:44:55;98443.31;;;6.41;88.76
18231;BME280;9240;49.966;21.994;2024-03-02T04:47:20;98436.50;;;6.40;88.98
18231;BME280;9240;49.966;21.994;2024-03-02T04:49:45;98441.53;;;6.42;88.74
18231;BME280;9240;49.966;21.994;2024-03-02T04:52:11;98444.97;;;6.42;88.89
18231;BME280;9240;49.966;21.994;2024-03-02T04:54:38;98444.13;;;6.42;89.04
18231;BME280;9240;49.966;21.994;2024-03-02T04:57:04;98447.66;;;6.41;88.76
18231;BME280;9240;49.966;21.994;2024-03-02T04:59:29;98442.59;;;6.39;89.19
18231;BME280;9240;49.966;21.994;2024-03-02T05:01:54;98448.69;;;6.38;88.92
18231;BME280;9240;49.966;21.994;2024-03-02T05:04:20;98451.28;;;6.38;89.27
18231;BME280;9240;49.966;21.994;2024-03-02T05:06:45;98447.03;;;6.37;88.93
18231;BME280;9240;49.966;21.994;2024-03-02T05:09:11;98451.19;;;6.40;88.91
18231;BME280;9240;49.966;21.994;2024-03-02T05:11:37;98445.19;;;6.39;89.38
18231;BME280;9240;49.966;21.994;2024-03-02T05:14:03;98452.94;;;6.39;89.20
18231;BME280;9240;49.966;21.994;2024-03-02T05:16:28;98458.94;;;6.40;89.23
18231;BME280;9240;49.966;21.994;2024-03-02T05:18:54;98460.69;;;6.39;88.94
18231;BME280;9240;49.966;21.994;2024-03-02T05:21:19;98448.59;;;6.40;89.13
18231;BME280;9240;49.966;21.994;2024-03-02T05:23:45;98459.66;;;6.42;89.07
18231;BME280;9240;49.966;21.994;2024-03-02T05:26:10;98456.25;;;6.41;89.04
18231;BME280;9240;49.966;21.994;2024-03-02T05:28:38;98459.66;;;6.42;89.46
18231;BME280;9240;49.966;21.994;2024-03-02T05:31:03;98468.25;;;6.42;89.06
18231;BME280;9240;49.966;21.994;2024-03-02T05:33:28;98469.91;;;6.43;89.14
18231;BME280;9240;49.966;21.994;2024-03-02T05:35:54;98477.66;;;6.43;89.08
18231;BME280;9240;49.966;21.994;2024-03-02T05:38:19;98488.81;;;6.44;89.40
18231;BME280;9240;49.966;21.994;2024-03-02T05:40:45;98479.31;;;6.44;89.08
18231;BME280;9240;49.966;21.994;2024-03-02T05:43:10;98478.28;;;6.47;89.28
18231;BME280;9240;49.966;21.994;2024-03-02T05:45:37;98477.47;;;6.46;89.37
18231;BME280;9240;49.966;21.994;2024-03-02T05:48:03;98479.13;;;6.47;89.03
18231;BME280;9240;49.966;21.994;2024-03-02T05:50:28;98477.34;;;6.48;89.25
18231;BME280;9240;49.966;21.994;2024-03-02T05:52:53;98483.34;;;6.48;88.85
18231;BME280;9240;49.966;21.994;2024-03-02T05:55:19;98484.06;;;6.50;89.12
18231;BME280;9240;49.966;21.994;2024-03-02T05:57:44;98483.97;;;6.52;88.92
18231;BME280;9240;49.966;21.994;2024-03-02T06:00:10;98482.09;;;6.54;89.24
18231;BME280;9240;49.966;21.994;2024-03-02T06:02:40;98481.06;;;6.57;89.33
18231;BME280;9240;49.966;21.994;2024-03-02T06:05:06;98485.31;;;6.58;89.11
18231;BME280;9240;49.966;21.994;2024-03-02T06:07:31;98491.22;;;6.60;89.17
18231;BME280;9240;49.966;21.994;2024-03-02T06:09:56;98484.25;;;6.60;89.32
18231;BME280;9240;49.966;21.994;2024-03-02T06:12:22;98498.66;;;6.64;89.38
18231;BME280;9240;49.966;21.994;2024-03-02T06:14:47;98484.66;;;6.67;89.07
18231;BME280;9240;49.966;21.994;2024-03-02T06:17:13;98481.06;;;6.70;89.12
18231;BME280;9240;49.966;21.994;2024-03-02T06:19:40;98485.19;;;6.72;88.89
18231;BME280;9240;49.966;21.994;2024-03-02T06:22:05;98488.50;;;6.74;89.18
18231;BME280;9240;49.966;21.994;2024-03-02T06:24:30;98490.03;;;6.77;88.86
18231;BME280;9240;49.966;21.994;2024-03-02T06:26:56;98491.59;;;6.79;89.24
18231;BME280;9240;49.966;21.994;2024-03-02T06:29:21;98486.31;;;6.81;88.73
18231;BME280;9240;49.966;21.994;2024-03-02T06:31:47;98488.81;;;6.82;88.92
18231;BME280;9240;49.966;21.994;2024-03-02T06:34:12;98493.00;;;6.83;88.38
18231;BME280;9240;49.966;21.994;2024-03-02T06:36:39;98484.31;;;6.84;88.60
18231;BME280;9240;49.966;21.994;2024-03-02T06:39:05;98493.75;;;6.86;88.34
18231;BME280;9240;49.966;21.994;2024-03-02T06:41:30;98498.81;;;6.87;88.85
18231;BME280;9240;49.966;21.994;2024-03-02T06:43:56;98488.34;;;6.89;88.31
18231;BME280;9240;49.966;21.994;2024-03-02T06:46:21;98491.66;;;6.91;88.03
18231;BME280;9240;49.966;21.994;2024-03-02T06:48:47;98488.03;;;6.93;88.34
18231;BME280;9240;49.966;21.994;2024-03-02T06:51:12;98488.75;;;6.95;88.26
18231;BME280;9240;49.966;21.994;2024-03-02T06:53:39;98491.97;;;6.99;88.47
18231;BME280;9240;49.966;21.994;2024-03-02T06:56:05;98486.56;;;7.02;88.22
18231;BME280;9240;49.966;21.994;2024-03-02T06:58:31;98491.31;;;7.08;88.17
18231;BME280;9240;49.966;21.994;2024-03-02T07:00:57;98487.59;;;7.12;87.78
18231;BME280;9240;49.966;21.994;2024-03-02T07:03:22;98489.03;;;7.17;87.88
18231;BME280;9240;49.966;21.994;2024-03-02T07:05:48;98493.75;;;7.23;87.94
18231;BME280;9240;49.966;21.994;2024-03-02T07:08:13;98492.72;;;7.25;87.47
18231;BME280;9240;49.966;21.994;2024-03-02T07:10:40;98491.66;;;7.28;87.67
18231;BME280;9240;49.966;21.994;2024-03-02T07:13:05;98493.91;;;7.33;87.56
18231;BME280;9240;49.966;21.994;2024-03-02T07:15:31;98497.84;;;7.38;87.27
18231;BME280;9240;49.966;21.994;2024-03-02T07:17:56;98490.91;;;7.39;87.40
18231;BME280;9240;49.966;21.994;2024-03-02T07:20:22;98489.03;;;7.41;87.22
18231;BME280;9240;49.966;21.994;2024-03-02T07:22:47;98496.47;;;7.46;87.07
18231;BME280;9240;49.966;21.994;2024-03-02T07:25:13;98503.09;;;7.50;87.20
18231;BME280;9240;49.966;21.994;2024-03-02T07:27:40;98494.84;;;7.56;86.70
18231;BME280;9240;49.966;21.994;2024-03-02T07:30:06;98502.06;;;7.64;86.54
18231;BME280;9240;49.966;21.994;2024-03-02T07:32:32;98506.69;;;7.71;86.52
18231;BME280;9240;49.966;21.994;2024-03-02T07:34:57;98502.00;;;7.77;86.54
18231;BME280;9240;49.966;21.994;2024-03-02T07:37:23;98497.31;;;7.82;86.05
18231;BME280;9240;49.966;21.994;2024-03-02T07:39:48;98504.75;;;7.86;85.85
18231;BME280;9240;49.966;21.994;2024-03-02T07:42:14;98505.97;;;7.94;85.66
18231;BME280;9240;49.966;21.994;2024-03-02T07:44:41;98504.91;;;7.96;85.54
18231;BME280;9240;49.966;21.994;2024-03-02T07:47:06;98502.09;;;7.99;85.78
18231;BME280;9240;49.966;21.994;2024-03-02T07:49:32;98513.66;;;8.07;85.29
18231;BME280;9240;49.966;21.994;2024-03-02T07:51:58;98510.59;;;8.13;84.88
18231;BME280;9240;49.966;21.994;2024-03-02T07:54:23;98505.28;;;8.14;85.17
18231;BME280;9240;49.966;21.994;2024-03-02T07:56:48;98510.16;;;8.19;84.60
18231;BME280;9240;49.966;21.994;2024-03-02T07:59:14;98512.50;;;8.22;84.38
18231;BME280;9240;49.966;21.994;2024-03-02T08:01:41;98515.00;;;8.24;84.06
18231;BME280;9240;49.966;21.994;2024-03-02T08:04:06;98504.50;;;8.25;84.45
18231;BME280;9240;49.966;21.994;2024-03-02T08:06:32;98517.72;;;8.33;84.03
18231;BME280;9240;49.966;21.994;2024-03-02T08:08:58;98523.16;;;8.42;83.97
18231;BME280;9240;49.966;21.994;2024-03-02T08:11:24;98531.31;;;8.48;83.40
18231;BME280;9240;49.966;21.994;2024-03-02T08:13:50;98531.94;;;8.52;83.52
18231;BME280;9240;49.966;21.994;2024-03-02T08:16:15;98527.22;;;8.57;83.03
18231;BME280;9240;49.966;21.994;2024-03-02T08:18:42;98534.91;;;8.59;82.89
18231;BME280;9240;49.966;21.994;2024-03-02T08:21:08;98534.78;;;8.60;82.77
18231;BME280;9240;49.966;21.994;2024-03-02T08:23:33;98531.22;;;8.61;82.58
18231;BME280;9240;49.966;21.994;2024-03-02T08:25:59;98532.06;;;8.62;82.66
18231;BME280;9240;49.966;21.994;2024-03-02T08:28:25;98524.88;;;8.65;82.22
18231;BME280;9240;49.966;21.994;2024-03-02T08:30:50;98519.56;;;8.67;82.41
18231;BME280;9240;49.966;21.994;2024-03-02T08:33:15;98527.34;;;8.67;82.14
18231;BME280;9240;49.966;21.994;2024-03-02T08:35:42;98523.94;;;8.67;81.96
18231;BME280;9240;49.966;21.994;2024-03-02T08:38:08;98534.19;;;8.68;82.11
18231;BME280;9240;49.966;21.994;2024-03-02T08:40:33;98533.25;;;8.69;82.12
18231;BME280;9240;49.966;21.994;2024-03-02T08:42:59;98539.16;;;8.71;81.63
18231;BME280;9240;49.966;21.994;2024-03-02T08:45:24;98535.03;;;8.69;81.76
18231;BME280;9240;49.966;21.994;2024-03-02T08:47:50;98537.63;;;8.69;81.77
18231;BME280;9240;49.966;21.994;2024-03-02T08:50:15;98538.34;;;8.71;81.62
18231;BME280;9240;49.966;21.994;2024-03-02T08:52:42;98536.41;;;8.73;81.66
18231;BME280;9240;49.966;21.994;2024-03-02T08:55:08;98534.75;;;8.72;81.44
18231;BME280;9240;49.966;21.994;2024-03-02T08:57:33;98538.34;;;8.71;81.35
18231;BME280;9240;49.966;21.994;2024-03-02T09:00:00;98534.66;;;8.73;81.42
18231;BME280;9240;49.966;21.994;2024-03-02T09:02:25;98538.78;;;8.76;81.47
18231;BME280;9240;49.966;21.994;2024-03-02T09:04:51;98544.69;;;8.78;81.46
18231;BME280;9240;49.966;21.994;2024-03-02T09:07:18;98542.81;;;8.80;81.01
18231;BME280;9240;49.966;21.994;2024-03-02T09:09:45;98531.47;;;8.81;81.24
18231;BME280;9240;49.966;21.994;2024-03-02T09:12:10;98541.41;;;8.87;81.02
18231;BME280;9240;49.966;21.994;2024-03-02T09:14:36;98539.38;;;8.91;81.26
18231;BME280;9240;49.966;21.994;2024-03-02T09:17:02;98538.09;;;8.96;80.97
18231;BME280;9240;49.966;21.994;2024-03-02T09:19:27;98546.69;;;8.97;80.93
18231;BME280;9240;49.966;21.994;2024-03-02T09:21:52;98542.34;;;8.98;81.12
18231;BME280;9240;49.966;21.994;2024-03-02T09:24:18;98539.03;;;8.95;81.17
18231;BME280;9240;49.966;21.994;2024-03-02T09:26:45;98538.22;;;8.95;81.08
18231;BME280;9240;49.966;21.994;2024-03-02T09:29:10;98539.16;;;8.94;81.17
18231;BME280;9240;49.966;21.994;2024-03-02T09:31:39;98547.66;;;8.96;81.24
18231;BME280;9240;49.966;21.994;2024-03-02T09:34:04;98548.34;;;8.98;81.26
18231;BME280;9240;49.966;21.994;2024-03-02T09:36:30;98563.91;;;8.98;81.43
18231;BME280;9240;49.966;21.994;2024-03-02T09:38:55;98561.31;;;8.98;81.24
18231;BME280;9240;49.966;21.994;2024-03-02T09:41:21;98565.47;;;9.01;81.45
18231;BME280;9240;49.966;21.994;2024-03-02T09:43:48;98555.19;;;8.99;81.59
18231;BME280;9240;49.966;21.994;2024-03-02T09:46:14;98563.69;;;9.01;81.73
18231;BME280;9240;49.966;21.994;2024-03-02T09:48:40;98558.50;;;9.01;81.70
18231;BME280;9240;49.966;21.994;2024-03-02T09:51:05;98565.47;;;9.01;82.04
18231;BME280;9240;49.966;21.994;2024-03-02T09:53:32;98567.47;;;9.08;81.82
18231;BME280;9240;49.966;21.994;2024-03-02T09:55:58;98575.75;;;9.14;81.80
18231;BME280;9240;49.966;21.994;2024-03-02T09:58:24;98568.75;;;9.14;81.58
18231;BME280;9240;49.966;21.994;2024-03-02T10:00:50;98577.03;;;9.19;81.38
18231;BME280;9240;49.966;21.994;2024-03-02T10:03:18;98575.59;;;9.26;81.10
18231;BME280;9240;49.966;21.994;2024-03-02T10:05:43;98581.63;;;9.27;81.42
18231;BME280;9240;49.966;21.994;2024-03-02T10:08:09;98576.06;;;9.32;81.29
18231;BME280;9240;49.966;21.994;2024-03-02T10:10:36;98578.31;;;9.36;81.17
18231;BME280;9240;49.966;21.994;2024-03-02T10:13:04;98582.19;;;9.42;81.07
18231;BME280;9240;49.966;21.994;2024-03-02T10:15:29;98578.41;;;9.46;81.04
18231;BME280;9240;49.966;21.994;2024-03-02T10:17:56;98571.19;;;9.50;80.77
18231;BME280;9240;49.966;21.994;2024-03-02T10:20:22;98578.75;;;9.53;81.00
18231;BME280;9240;49.966;21.994;2024-03-02T10:22:48;98569.06;;;9.55;80.75
18231;BME280;9240;49.966;21.994;2024-03-02T10:25:28;98576.03;;;9.54;80.73
18231;BME280;9240;49.966;21.994;2024-03-02T10:27:57;98569.06;;;9.55;80.78
18231;BME280;9240;49.966;21.994;2024-03-02T10:30:22;98569.19;;;9.53;80.87
18231;BME280;9240;49.966;21.994;2024-03-02T10:32:49;98560.44;;;9.54;80.86
18231;BME280;9240;49.966;21.994;2024-03-02T10:35:16;98561.84;;;9.59;80.80
18231;BME280;9240;49.966;21.994;2024-03-02T10:37:42;98560.66;;;9.63;80.63
18231;BME280;9240;49.966;21.994;2024-03-02T10:40:10;98555.78;;;9.69;80.53
18231;BME280;9240;49.966;21.994;2024-03-02T10:42:37;98557.19;;;9.74;80.46
18231;BME280;9240;49.966;21.994;2024-03-02T10:45:04;98556.09;;;9.76;80.68
18231;BME280;9240;49.966;21.994;2024-03-02T10:47:31;98553.41;;;9.78;80.65
18231;BME280;9240;49.966;21.994;2024-03-02T10:49:59;98554.22;;;9.78;80.89
18231;BME280;9240;49.966;21.994;2024-03-02T10:52:27;98552.56;;;9.77;80.60
18231;BME280;9240;49.966;21.994;2024-03-02T10:54:53;98549.00;;;9.78;80.63
18231;BME280;9240;49.966;21.994;2024-03-02T10:57:21;98547.44;;;9.87;80.58
18231;BME280;9240;49.966;21.994;2024-03-02T10:59:52;98556.53;;;9.93;80.53
18231;BME280;9240;49.966;21.994;2024-03-02T11:02:19;98553.56;;;9.97;80.25
18231;BME280;9240;49.966;21.994;2024-03-02T11:04:47;98550.81;;;9.99;80.06
18231;BME280;9240;49.966;21.994;2024-03-02T11:07:14;98542.63;;;10.03;80.20
18231;BME280;9240;49.966;21.994;2024-03-02T11:09:50;98543.72;;;10.01;80.13
18231;BME280;9240;49.966;21.994;2024-03-02T11:12:19;98540.66;;;9.96;80.21
18231;BME280;9240;49.966;21.994;2024-03-02T11:14:48;98543.03;;;9.99;80.25
18231;BME280;9240;49.966;21.994;2024-03-02T11:17:16;98537.34;;;10.05;79.94
18231;BME280;9240;49.966;21.994;2024-03-02T11:19:43;98527.09;;;10.13;79.99
18231;BME280;9240;49.966;21.994;2024-03-02T11:22:10;98519.63;;;10.20;79.92
18231;BME280;9240;49.966;21.994;2024-03-02T11:24:35;98526.66;;;10.29;79.72
18231;BME280;9240;49.966;21.994;2024-03-02T11:27:04;98518.66;;;10.42;79.62
18231;BME280;9240;49.966;21.994;2024-03-02T11:29:49;98519.16;;;10.57;79.39
18231;BME280;9240;49.966;21.994;2024-03-02T11:32:21;98515.66;;;10.68;79.04
18231;BME280;9240;49.966;21.994;2024-03-02T11:34:48;98518.31;;;10.78;78.52
18231;BME280;9240;49.966;21.994;2024-03-02T11:37:14;98520.97;;;10.88;78.25
18231;BME280;9240;49.966;21.994;2024-03-02T11:39:40;98509.03;;;10.95;78.04
18231;BME280;9240;49.966;21.994;2024-03-02T11:42:08;98526.50;;;11.04;77.83
18231;BME280;9240;49.966;21.994;2024-03-02T11:44:34;98516.06;;;11.04;77.56
18231;BME280;9240;49.966;21.994;2024-03-02T11:47:00;98514.72;;;11.10;77.74
18231;BME280;9240;49.966;21.994;2024-03-02T11:49:37;98516.09;;;11.14;77.02
18231;BME280;9240;49.966;21.994;2024-03-02T11:52:04;98506.91;;;11.20;76.84
18231;BME280;9240;49.966;21.994;2024-03-02T11:54:32;98505.28;;;11.29;76.74
18231;BME280;9240;49.966;21.994;2024-03-02T11:56:58;98501.56;;;11.31;76.39
18231;BME280;9240;49.966;21.994;2024-03-02T11:59:32;98501.59;;;11.41;76.03
18231;BME280;9240;49.966;21.994;2024-03-02T12:01:59;98502.72;;;11.48;76.08
18231;BME280;9240;49.966;21.994;2024-03-02T12:04:25;98499.97;;;11.50;75.63
18231;BME280;9240;49.966;21.994;2024-03-02T12:06:54;98512.72;;;11.53;75.49
18231;BME280;9240;49.966;21.994;2024-03-02T12:09:20;98506.28;;;11.57;75.31
18231;BME280;9240;49.966;21.994;2024-03-02T12:11:46;98504.50;;;11.58;75.17
18231;BME280;9240;49.966;21.994;2024-03-02T12:14:11;98496.94;;;11.64;75.14
18231;BME280;9240;49.966;21.994;2024-03-02T12:16:38;98499.69;;;11.73;74.52
18231;BME280;9240;49.966;21.994;2024-03-02T12:19:04;98502.31;;;11.82;74.26
18231;BME280;9240;49.966;21.994;2024-03-02T12:21:29;98494.75;;;11.89;74.20
18231;BME280;9240;49.966;21.994;2024-03-02T12:23:55;98500.81;;;11.99;73.65
18231;BME280;9240;49.966;21.994;2024-03-02T12:26:22;98503.94;;;12.13;73.33
18231;BME280;9240;49.966;21.994;2024-03-02T12:28:47;98493.09;;;12.27;72.99
18231;BME280;9240;49.966;21.994;2024-03-02T12:31:13;98488.66;;;12.38;72.73
18231;BME280;9240;49.966;21.994;2024-03-02T12:33:41;98497.94;;;12.50;72.56
18231;BME280;9240;49.966;21.994;2024-03-02T12:36:09;98489.13;;;12.61;71.97
18231;BME280;9240;49.966;21.994;2024-03-02T12:38:35;98489.91;;;12.71;72.02
18231;BME280;9240;49.966;21.994;2024-03-02T12:41:01;98489.56;;;12.84;71.72
18231;BME280;9240;49.966;21.994;2024-03-02T12:43:30;98492.41;;;12.91;70.85
18231;BME280;9240;49.966;21.994;2024-03-02T12:45:55;98497.22;;;12.96;70.48
18231;BME280;9240;49.966;21.994;2024-03-02T12:48:21;98496.78;;;13.00;70.20
18231;BME280;9240;49.966;21.994;2024-03-02T12:50:48;98484.25;;;13.04;70.06
18231;BME280;9240;49.966;21.994;2024-03-02T12:53:16;98492.47;;;13.09;69.55
18231;BME280;9240;49.966;21.994;2024-03-02T12:55:42;98493.50;;;13.16;69.45
18231;BME280;9240;49.966;21.994;2024-03-02T12:58:07;98484.94;;;13.24;69.17
18231;BME280;9240;49.966;21.994;2024-03-02T13:00:33;98489.41;;;13.14;69.24
18231;BME280;9240;49.966;21.994;2024-03-02T13:02:58;98483.72;;;13.00;69.17